Time;durP1;ratioP1;P1;durP2;ratioP2;P2;SDS_P1;SDS_P2;PMS_P1;PMS_P2;Temp;Humidity;BMP_temperature;BMP_pressure;BME280_temperature;BME280_humidity;BME280_pressure;Samples;Min_cycle;Max_cycle;Signal;HPM_P1;HPM_P2
2022/08/03 00:01:50;;;;;;;4.05;2.70;;;;;;;23.44;67.66;100227.81;4952776;28;20039;-92
2022/08/03 00:04:16;;;;;;;6.38;2.70;;;;;;;23.75;67.98;100280.75;4935908;29;20043;-86
2022/08/03 00:06:42;;;;;;;11.15;2.70;;;;;;;23.60;68.75;100283.69;4934983;29;20034;-81
2022/08/03 00:09:08;;;;;;;6.05;3.00;;;;;;;23.39;69.06;100261.25;4912811;29;20040;-83
2022/08/03 00:11:34;;;;;;;6.05;2.92;;;;;;;23.20;69.63;100240.56;4912515;29;20107;-87
2022/08/03 00:14:00;;;;;;;5.78;2.58;;;;;;;23.17;70.36;100255.56;4913428;29;20040;-82
2022/08/03 00:16:25;;;;;;;7.53;3.10;;;;;;;23.27;70.04;100280.81;4856561;29;20532;-78
2022/08/03 00:18:51;;;;;;;7.70;3.05;;;;;;;23.32;68.46;100284.22;4856976;29;20041;-81
2022/08/03 00:21:17;;;;;;;4.28;2.90;;;;;;;23.32;67.41;100284.22;4856676;29;20512;-87
2022/08/03 00:23:43;;;;;;;8.85;3.38;;;;;;;23.01;67.42;100234.72;4875101;29;20053;-84
2022/08/03 00:26:08;;;;;;;4.60;2.95;;;;;;;23.30;67.03;100283.38;4874906;29;20148;-87
2022/08/03 00:28:34;;;;;;;5.05;2.92;;;;;;;23.05;67.17;100260.13;4874992;29;20121;-81
2022/08/03 00:30:59;;;;;;;5.00;2.90;;;;;;;23.01;67.79;100279.47;4859842;29;20500;-92
2022/08/03 00:33:25;;;;;;;5.15;2.90;;;;;;;22.58;67.51;100227.56;4891695;29;20079;-84
2022/08/03 00:35:51;;;;;;;5.63;2.80;;;;;;;22.71;67.52;100239.63;4915732;29;20123;-82
2022/08/03 00:38:17;;;;;;;7.50;3.20;;;;;;;22.45;68.52;100224.28;4931621;29;20036;-86
2022/08/03 00:40:42;;;;;;;4.68;2.83;;;;;;;22.67;68.43;100266.91;4914989;29;20036;-80
2022/08/03 00:43:08;;;;;;;4.22;2.75;;;;;;;22.34;68.32;100227.03;4922106;29;20537;-80
2022/08/03 00:45:37;;;;;;;6.18;2.65;;;;;;;22.58;69.37;100283.72;4915497;29;20115;-81
2022/08/03 00:48:04;;;;;;;;;;;;;;;22.38;70.18;100283.13;4982573;28;20034;-77
2022/08/03 00:50:33;;;;;;;4.22;2.90;;;;;;;22.29;70.50;100253.44;4974341;28;19909;-78
2022/08/03 00:53:00;;;;;;;4.10;2.88;;;;;;;22.51;71.16;100289.94;4974188;28;20386;-76
2022/08/03 00:55:26;;;;;;;6.85;3.00;;;;;;;22.44;71.38;100285.66;4991434;28;20100;-80
2022/08/03 00:57:52;;;;;;;5.25;2.90;;;;;;;22.44;69.97;100283.94;4991543;28;20113;-83
2022/08/03 01:00:22;;;;;;;8.68;3.00;;;;;;;21.94;70.30;100227.63;4991811;28;20136;-80
2022/08/03 01:02:48;;;;;;;;;;;;;;;22.36;70.60;100285.75;4991994;28;20033;-82
2022/08/03 01:05:14;;;;;;;5.88;3.10;;;;;;;21.27;70.29;100089.28;4991310;28;19913;-83
2022/08/03 01:07:45;;;;;;;5.03;3.00;;;;;;;22.67;68.97;100282.69;4949440;28;20035;-87
2022/08/03 01:10:29;;;;;;;6.30;3.20;;;;;;;22.52;69.31;100293.44;4949886;29;20047;-84
2022/08/03 01:13:12;;;;;;;4.72;3.17;;;;;;;22.16;71.59;100267.66;4950057;29;20122;-83
2022/08/03 01:15:38;;;;;;;7.03;3.35;;;;;;;22.29;70.99;100284.09;4933932;29;20553;-86
2022/08/03 01:18:12;;;;;;;7.60;3.30;;;;;;;22.19;71.60;100280.72;4949603;29;20143;-83
2022/08/03 01:20:44;;;;;;;5.15;3.20;;;;;;;21.96;72.49;100286.31;4949793;29;20568;-80
2022/08/03 01:23:40;;;;;;;8.65;3.33;;;;;;;21.85;73.89;100289.06;4933439;29;20134;-80
2022/08/03 01:26:26;;;;;;;8.27;3.60;;;;;;;21.38;74.42;100230.91;4949921;29;20123;-84
2022/08/03 01:29:03;;;;;;;4.72;3.35;;;;;;;21.40;74.91;100238.81;4949779;29;20701;-81
2022/08/03 01:31:41;;;;;;;7.13;3.50;;;;;;;21.71;74.33;100288.38;4949805;29;20506;-80
2022/08/03 01:34:10;;;;;;;5.40;3.63;;;;;;;21.59;74.50;100263.13;4949718;29;20095;-81
2022/08/03 01:36:42;;;;;;;5.70;3.90;;;;;;;21.65;75.53;100286.69;4949533;29;20039;-84
2022/08/03 01:39:08;;;;;;;5.53;3.72;;;;;;;21.53;74.93;100276.28;4978201;28;20081;-80
2022/08/03 01:41:58;;;;;;;7.10;3.67;;;;;;;21.45;75.50;100286.91;4990074;28;20038;-79
2022/08/03 01:44:28;;;;;;;5.70;3.38;;;;;;;21.45;76.17;100286.91;4990186;28;20038;-81
2022/08/03 01:46:59;;;;;;;5.60;3.55;;;;;;;21.50;75.25;100285.94;4990253;28;20080;-80
2022/08/03 01:49:27;;;;;;;6.75;3.10;;;;;;;21.40;75.21;100263.31;4990356;28;20477;-80
2022/08/03 01:51:54;;;;;;;6.63;3.50;;;;;;;21.61;74.54;100295.50;4973358;28;20481;-82
2022/08/03 01:54:20;;;;;;;4.63;3.00;;;;;;;21.54;74.10;100270.16;4993651;28;20539;-82
2022/08/03 01:56:50;;;;;;;6.70;3.42;;;;;;;21.48;74.39;100290.34;4995011;28;20489;-84
2022/08/03 01:59:17;;;;;;;5.03;3.33;;;;;;;21.51;74.41;100294.72;4995358;28;20547;-85
2022/08/03 02:01:44;;;;;;;5.45;3.65;;;;;;;21.46;73.98;100281.63;4995580;28;20097;-82
2022/08/03 02:04:12;;;;;;;8.48;3.67;;;;;;;21.47;74.70;100280.75;4995340;28;20426;-84
2022/08/03 02:06:38;;;;;;;5.03;3.50;;;;;;;21.30;73.79;100259.91;4977328;28;20120;-84
2022/08/03 02:09:06;;;;;;;5.53;3.60;;;;;;;21.40;73.24;100271.19;4995055;28;20117;-84
2022/08/03 02:11:34;;;;;;;6.70;3.80;;;;;;;21.70;72.88;100287.50;4977436;28;20040;-84
2022/08/03 02:14:04;;;;;;;9.27;3.45;;;;;;;21.79;72.63;100286.53;4977468;28;20128;-84
2022/08/03 02:16:30;;;;;;;;;;;;;;;22.01;71.88;100300.28;4994950;28;20034;-86
2022/08/03 02:18:58;;;;;;;4.75;3.50;;;;;;;22.09;71.40;100287.00;4977068;28;19918;-84
2022/08/03 02:21:25;;;;;;;5.28;3.30;;;;;;;22.23;71.50;100284.19;4994978;28;20038;-85
2022/08/03 02:23:51;;;;;;;6.38;3.65;;;;;;;22.29;72.39;100285.00;4994606;28;20051;-80
2022/08/03 02:26:19;;;;;;;6.05;3.67;;;;;;;21.87;72.52;100239.13;4994734;28;20042;-80
2022/08/03 02:28:49;;;;;;;5.47;3.83;;;;;;;22.11;72.88;100304.50;4977103;28;20520;-80
2022/08/03 02:31:18;;;;;;;6.25;3.55;;;;;;;22.02;72.71;100283.63;4994447;28;20038;-80
2022/08/03 02:33:55;;;;;;;6.57;3.92;;;;;;;21.76;73.00;100255.03;4994573;28;20042;-81
2022/08/03 02:36:27;;;;;;;7.30;4.38;;;;;;;22.06;73.23;100298.44;4994578;28;20539;-81
2022/08/03 02:38:55;;;;;;;5.60;3.88;;;;;;;21.98;73.93;100293.28;4933894;29;20504;-80
2022/08/03 02:41:31;;;;;;;8.13;3.80;;;;;;;21.89;75.19;100311.78;4933880;29;20040;-79
2022/08/03 02:43:59;;;;;;;5.65;3.88;;;;;;;21.71;74.70;100280.47;4918043;29;20043;-80
2022/08/03 02:46:33;;;;;;;6.95;4.03;;;;;;;21.67;75.13;100289.31;4933931;29;20047;-80
2022/08/03 02:49:03;;;;;;;5.22;3.60;;;;;;;21.74;74.64;100312.00;4933803;29;20036;-81
2022/08/03 02:51:34;;;;;;;4.80;3.67;;;;;;;21.65;74.61;100321.72;4934135;29;20051;-80
2022/08/03 02:54:01;;;;;;;8.55;3.95;;;;;;;21.71;74.90;100312.91;4933612;29;20079;-80
2022/08/03 02:56:28;;;;;;;8.27;4.45;;;;;;;21.50;74.61;100278.06;4933571;29;20042;-81
2022/08/03 02:58:57;;;;;;;6.10;4.38;;;;;;;21.68;73.78;100314.69;4933431;29;20046;-80
2022/08/03 03:01:24;;;;;;;7.93;3.80;;;;;;;21.42;73.25;100276.41;4933798;29;20048;-80
2022/08/03 03:03:52;;;;;;;6.72;4.15;;;;;;;21.28;74.81;100269.56;4933414;29;20036;-80
2022/08/03 03:06:19;;;;;;;10.10;3.95;;;;;;;21.51;74.73;100318.34;4932938;29;20035;-80
2022/08/03 03:08:46;;;;;;;12.00;4.07;;;;;;;21.38;74.24;100296.56;4933435;29;20036;-80
2022/08/03 03:11:13;;;;;;;10.57;4.45;;;;;;;21.43;75.38;100315.81;4933360;29;20048;-75
2022/08/03 03:13:42;;;;;;;8.55;4.40;;;;;;;21.52;76.78;100333.22;4933445;29;20230;-78
2022/08/03 03:16:10;;;;;;;5.47;4.30;;;;;;;21.46;77.52;100331.53;4959160;28;20034;-78
2022/08/03 03:18:38;;;;;;;8.95;4.38;;;;;;;21.54;77.69;100335.81;4993437;28;20497;-78
2022/08/03 03:21:04;;;;;;;6.22;3.80;;;;;;;21.54;78.56;100336.69;4993603;28;20045;-78
2022/08/03 03:23:34;;;;;;;8.50;4.32;;;;;;;21.25;78.22;100298.47;4994062;28;20081;-79
2022/08/03 03:26:01;;;;;;;6.35;4.45;;;;;;;21.53;78.73;100329.69;4993311;28;20034;-79
2022/08/03 03:28:27;;;;;;;8.00;4.63;;;;;;;21.61;78.88;100332.28;4993529;28;20046;-85
2022/08/03 03:30:53;;;;;;;11.02;4.55;;;;;;;21.77;78.86;100339.09;4993790;28;20034;-87
2022/08/03 03:33:18;;;;;;;6.53;4.53;;;;;;;21.47;78.83;100291.25;4976025;28;20551;-87
2022/08/03 03:35:45;;;;;;;9.18;4.75;;;;;;;21.81;77.87;100346.06;4975863;28;20034;-88
2022/08/03 03:38:13;;;;;;;6.25;4.00;;;;;;;21.84;77.39;100346.91;4993586;28;20041;-87
2022/08/03 03:40:40;;;;;;;8.82;4.75;;;;;;;21.22;77.02;100234.63;4971237;28;20050;-87
2022/08/03 03:43:10;;;;;;;7.82;4.53;;;;;;;21.54;77.16;100289.41;4990381;28;20129;-86
2022/08/03 03:45:36;;;;;;;7.90;4.40;;;;;;;21.86;77.09;100345.13;4975608;28;20046;-86
2022/08/03 03:48:04;;;;;;;8.35;4.90;;;;;;;21.86;77.50;100358.25;4993163;28;20122;-86
2022/08/03 03:50:31;;;;;;;6.07;4.72;;;;;;;21.34;77.19;100266.00;4993273;28;20057;-88
2022/08/03 03:52:57;;;;;;;7.50;4.75;;;;;;;21.77;76.85;100348.72;4993551;28;20042;-88
2022/08/03 03:55:23;;;;;;;7.43;4.18;;;;;;;21.69;75.66;100333.06;4975757;28;20045;-88
2022/08/03 03:57:48;;;;;;;8.70;4.95;;;;;;;21.18;75.16;100246.91;4972719;28;20034;-88
2022/08/03 04:00:16;;;;;;;7.80;4.15;;;;;;;21.75;75.37;100340.00;4993588;28;20038;-89
2022/08/03 04:02:41;;;;;;;9.23;4.60;;;;;;;21.38;74.76;100285.22;4993267;28;20045;-88
2022/08/03 04:11:00;;;;;;;9.32;4.78;;;;;;;22.00;74.32;100361.63;4992673;28;20120;-86
2022/08/03 04:13:39;;;;;;;11.30;5.05;;;;;;;21.84;73.84;100339.03;4992718;28;20038;-90
2022/08/03 04:16:06;;;;;;;10.35;4.80;;;;;;;21.96;74.49;100357.28;4992712;28;20034;-88
2022/08/03 04:18:34;;;;;;;6.28;4.60;;;;;;;21.96;73.50;100360.78;4975132;28;20160;-80
2022/08/03 04:21:04;;;;;;;7.57;5.03;;;;;;;21.95;74.28;100368.69;4992822;28;20376;-79
2022/08/03 04:23:33;;;;;;;7.82;4.68;;;;;;;22.03;73.55;100361.59;4992198;28;20062;-80
2022/08/03 04:26:02;;;;;;;7.43;4.18;;;;;;;22.06;74.15;100352.78;4992642;28;20030;-80
2022/08/03 04:28:29;;;;;;;7.45;4.63;;;;;;;22.09;72.92;100347.47;4992534;28;20038;-80
2022/08/03 04:30:55;;;;;;;7.75;4.93;;;;;;;22.21;73.48;100349.09;4992476;28;20062;-80
2022/08/03 04:33:22;;;;;;;11.15;4.70;;;;;;;22.26;72.77;100344.66;4974902;28;20042;-85
2022/08/03 04:35:48;;;;;;;5.63;4.90;;;;;;;22.18;73.09;100323.72;4992533;28;20034;-85
2022/08/03 04:38:17;;;;;;;8.55;5.18;;;;;;;22.46;74.15;100368.06;4991949;28;20461;-85
2022/08/03 04:40:44;;;;;;;6.93;4.80;;;;;;;22.29;73.43;100348.09;4992125;28;20477;-85
2022/08/03 04:43:13;;;;;;;8.27;5.30;;;;;;;22.55;73.64;100381.09;4992395;28;20045;-88
2022/08/03 04:45:40;;;;;;;12.25;4.95;;;;;;;22.54;73.96;100374.09;4992588;28;20096;-85
2022/08/03 04:48:06;;;;;;;8.05;5.00;;;;;;;22.57;73.54;100381.94;4986063;28;20539;-84
2022/08/03 04:50:32;;;;;;;9.52;5.20;;;;;;;22.64;74.47;100387.13;4991728;28;20034;-86
2022/08/03 04:52:58;;;;;;;7.20;5.00;;;;;;;22.49;74.14;100369.78;4974442;28;20037;-86
2022/08/03 04:55:29;;;;;;;6.90;5.30;;;;;;;22.56;74.88;100387.25;4992155;28;20035;-86
2022/08/03 04:57:55;;;;;;;9.82;5.43;;;;;;;22.44;75.93;100344.44;4992142;28;20070;-85
2022/08/03 05:00:21;;;;;;;9.52;5.45;;;;;;;22.70;76.23;100387.88;4992178;28;20085;-82
2022/08/03 05:02:47;;;;;;;7.45;5.22;;;;;;;22.73;76.39;100379.97;4974509;28;20058;-84
2022/08/03 05:05:12;;;;;;;9.52;5.90;;;;;;;22.81;76.67;100390.38;4973985;28;20052;-80
2022/08/03 05:07:38;;;;;;;7.93;6.43;;;;;;;22.82;76.65;100388.59;4991846;28;20048;-81
2022/08/03 05:10:09;;;;;;;8.80;5.60;;;;;;;22.93;75.78;100391.97;4991544;28;20455;-80
2022/08/03 05:12:34;;;;;;;10.82;6.60;;;;;;;22.90;76.89;100370.94;4991773;28;20555;-82
2022/08/03 05:15:00;;;;;;;12.82;5.95;;;;;;;23.05;76.74;100381.25;4991392;28;20046;-82
2022/08/03 05:17:27;;;;;;;13.70;5.85;;;;;;;23.15;75.84;100391.63;4991830;28;20117;-83
2022/08/03 05:19:53;;;;;;;16.35;7.50;;;;;;;23.03;74.99;100353.16;4956521;28;20050;-82
2022/08/03 05:22:19;;;;;;;18.13;7.75;;;;;;;23.16;75.81;100365.28;4991618;28;20062;-83
2022/08/03 05:24:45;;;;;;;14.88;6.97;;;;;;;22.97;74.62;100321.69;4991668;28;20031;-91
2022/08/03 05:27:16;;;;;;;15.90;7.30;;;;;;;23.43;75.36;100379.72;4973751;28;20068;-90
2022/08/03 05:29:42;;;;;;;17.38;7.55;;;;;;;23.60;75.99;100399.63;4969192;28;20034;-81
2022/08/03 05:32:08;;;;;;;26.25;7.43;;;;;;;23.38;74.87;100352.59;4991600;28;20034;-84
2022/08/03 05:34:34;;;;;;;30.05;7.93;;;;;;;23.74;73.53;100402.91;4991457;28;20034;-82
2022/08/03 05:36:59;;;;;;;21.20;8.38;;;;;;;23.82;73.80;100392.19;4991140;28;20038;-89
2022/08/03 05:39:25;;;;;;;29.92;9.55;;;;;;;23.81;71.94;100371.16;4973824;28;20143;-88
2022/08/03 05:41:50;;;;;;;29.60;10.30;;;;;;;23.82;71.77;100378.16;4950140;29;20039;-92
2022/08/03 05:44:16;;;;;;;36.58;9.95;;;;;;;23.85;72.32;100386.00;4950162;29;20509;-87
2022/08/03 05:46:41;;;;;;;42.13;10.38;;;;;;;23.79;70.90;100349.22;4944403;29;20630;-88
2022/08/03 05:49:07;;;;;;;23.48;8.52;;;;;;;23.98;70.93;100365.59;4950059;29;20043;-88
2022/08/03 05:51:32;;;;;;;27.48;8.57;;;;;;;23.92;68.86;100349.88;4950016;29;20047;-89
2022/08/03 05:53:57;;;;;;;29.42;7.85;;;;;;;24.15;71.35;100396.88;4949940;29;20043;-89
2022/08/03 05:56:26;;;;;;;22.67;7.03;;;;;;;24.19;71.08;100399.41;4933856;29;20129;-85
2022/08/03 05:58:52;;;;;;;18.92;6.63;;;;;;;24.25;70.09;100409.00;4949823;29;20035;-87
2022/08/03 06:01:20;;;;;;;30.67;7.82;;;;;;;24.36;70.27;100398.19;4950209;29;20039;-87
2022/08/03 06:03:46;;;;;;;29.85;7.97;;;;;;;24.29;67.84;100368.44;4949993;29;20047;-87
2022/08/03 06:06:12;;;;;;;33.50;7.30;;;;;;;24.47;68.17;100385.63;4933756;29;20043;-87
2022/08/03 06:08:39;;;;;;;20.35;6.63;;;;;;;24.37;68.45;100377.06;4949855;29;20549;-87
2022/08/03 06:11:04;;;;;;;23.73;6.75;;;;;;;24.63;66.57;100390.56;4934084;29;20529;-87
2022/08/03 06:13:31;;;;;;;23.58;6.72;;;;;;;24.87;65.83;100402.38;4981905;28;20066;-85
2022/08/03 06:15:56;;;;;;;20.10;6.00;;;;;;;25.00;63.90;100400.31;4990704;28;20069;-86
2022/08/03 06:18:23;;;;;;;21.95;6.28;;;;;;;24.94;64.01;100379.34;4973537;28;20504;-86
2022/08/03 06:20:50;;;;;;;30.42;7.18;;;;;;;25.01;63.18;100368.59;4990624;28;20050;-85
2022/08/03 06:23:16;;;;;;;20.92;5.30;;;;;;;24.98;63.78;100342.22;4973124;28;20424;-84
2022/08/03 06:25:42;;;;;;;17.95;5.38;;;;;;;25.23;63.67;100380.38;4991467;28;20477;-86
2022/08/03 06:28:08;;;;;;;13.57;4.03;;;;;;;25.42;60.19;100400.19;4973477;28;20038;-85
2022/08/03 06:30:34;;;;;;;20.30;6.25;;;;;;;25.47;61.21;100381.53;4994542;28;20048;-82
2022/08/03 06:32:59;;;;;;;22.85;6.55;;;;;;;25.63;60.05;100388.19;5010788;28;20030;-83
2022/08/03 06:35:26;;;;;;;12.80;4.20;;;;;;;25.83;58.72;100398.22;5010435;28;20078;-84
2022/08/03 06:37:53;;;;;;;14.32;3.55;;;;;;;25.94;56.57;100403.19;5010283;28;20563;-84
2022/08/03 06:40:31;;;;;;;18.08;5.35;;;;;;;26.00;56.79;100394.22;5012062;28;20118;-83
2022/08/03 06:42:58;;;;;;;14.82;4.10;;;;;;;26.21;57.13;100405.13;5013787;28;20566;-83
2022/08/03 06:45:24;;;;;;;9.90;3.55;;;;;;;25.94;55.15;100345.00;5014143;28;20128;-85
2022/08/03 06:48:03;;;;;;;11.75;4.07;;;;;;;26.39;54.87;100406.38;5014378;28;20532;-85
2022/08/03 06:50:29;;;;;;;16.50;4.55;;;;;;;26.47;54.61;100396.44;5014107;28;20452;-85
2022/08/03 06:52:55;;;;;;;25.15;6.53;;;;;;;26.56;53.87;100404.06;5013950;28;20037;-83
2022/08/03 06:55:20;;;;;;;23.30;5.10;;;;;;;26.22;54.53;100351.28;5014158;28;20034;-86
2022/08/03 06:57:46;;;;;;;7.75;3.05;;;;;;;26.43;51.80;100392.13;5013932;28;20593;-87
2022/08/03 07:00:12;;;;;;;5.30;2.58;;;;;;;26.58;53.28;100388.13;5011811;28;20531;-87
2022/08/03 07:02:38;;;;;;;7.88;3.20;;;;;;;26.64;54.79;100393.25;5013215;28;20042;-81
2022/08/03 07:05:04;;;;;;;11.10;2.65;;;;;;;26.65;50.18;100365.84;4995762;28;20037;-81
2022/08/03 07:07:30;;;;;;;4.60;2.50;;;;;;;26.91;47.72;100383.59;5013395;28;20042;-81
2022/08/03 07:09:55;;;;;;;10.85;3.13;;;;;;;27.15;47.49;100407.53;5013100;28;20041;-88
2022/08/03 07:12:21;;;;;;;8.45;2.70;;;;;;;27.12;47.60;100394.41;5013166;28;20049;-85
2022/08/03 07:14:46;;;;;;;7.88;2.55;;;;;;;27.32;46.58;100404.34;5013097;28;20034;-85
2022/08/03 07:17:12;;;;;;;8.85;2.63;;;;;;;27.13;47.73;100374.94;5013099;28;20034;-85
2022/08/03 07:19:37;;;;;;;15.38;3.33;;;;;;;27.25;48.11;100382.47;5012724;28;20084;-85
2022/08/03 07:22:03;;;;;;;7.75;2.30;;;;;;;27.11;45.36;100356.41;5012883;28;20077;-84
2022/08/03 07:24:28;;;;;;;9.45;2.30;;;;;;;27.40;45.99;100394.38;5013055;28;20030;-84
2022/08/03 07:26:54;;;;;;;6.82;2.95;;;;;;;27.49;46.61;100381.69;5012628;28;20038;-85
2022/08/03 07:29:20;;;;;;;9.40;2.90;;;;;;;27.50;43.70;100379.00;4995136;28;20058;-83
2022/08/03 07:31:45;;;;;;;9.90;3.22;;;;;;;27.60;46.67;100379.53;5013079;28;20034;-77
2022/08/03 07:34:12;;;;;;;19.08;4.30;;;;;;;27.64;45.75;100394.44;5012633;28;20112;-81
2022/08/03 07:36:38;;;;;;;20.05;4.15;;;;;;;27.69;46.76;100396.91;5010227;28;20034;-81
2022/08/03 07:39:04;;;;;;;5.63;2.80;;;;;;;27.80;45.37;100394.72;5010116;28;20069;-82
2022/08/03 07:41:30;;;;;;;5.82;2.72;;;;;;;27.93;45.36;100403.97;5012993;28;20117;-82
2022/08/03 07:43:56;;;;;;;6.35;2.67;;;;;;;27.91;45.63;100400.53;5010449;28;20599;-81
2022/08/03 07:46:21;;;;;;;11.65;3.78;;;;;;;28.01;45.98;100408.16;5014068;28;20125;-82
2022/08/03 07:48:47;;;;;;;7.10;2.88;;;;;;;28.06;47.43;100404.44;5012904;28;20374;-83
2022/08/03 07:51:12;;;;;;;4.28;2.40;;;;;;;28.06;44.07;100377.03;5011735;28;20041;-85
2022/08/03 07:53:41;;;;;;;6.18;2.60;;;;;;;28.14;44.67;100371.44;5012081;28;20061;-84
2022/08/03 07:56:06;;;;;;;4.35;2.40;;;;;;;27.72;45.25;100309.28;4994762;28;20416;-83
2022/08/03 07:58:34;;;;;;;4.55;2.20;;;;;;;28.15;43.81;100373.16;5012506;28;20045;-85
2022/08/03 08:01:00;;;;;;;5.05;2.10;;;;;;;28.22;44.36;100386.13;4995317;28;20537;-85
2022/08/03 08:03:25;;;;;;;4.68;2.25;;;;;;;28.32;43.73;100399.06;5012843;28;20082;-84
2022/08/03 08:05:52;;;;;;;3.90;2.30;;;;;;;28.53;42.27;100397.38;5011434;28;20102;-84
2022/08/03 08:08:18;;;;;;;8.23;3.65;;;;;;;28.69;45.05;100393.22;5012767;28;20088;-81
2022/08/03 08:10:44;;;;;;;25.90;4.70;;;;;;;28.72;41.44;100401.09;5011123;28;20064;-81
2022/08/03 08:13:10;;;;;;;3.95;2.75;;;;;;;28.49;44.05;100356.81;5011345;28;20488;-81
2022/08/03 08:15:35;;;;;;;10.60;3.03;;;;;;;28.55;43.86;100375.16;5012226;28;20060;-86
2022/08/03 08:18:01;;;;;;;3.42;2.10;;;;;;;28.74;42.42;100401.00;5012695;28;20037;-87
2022/08/03 08:20:30;;;;;;;4.38;2.30;;;;;;;28.86;41.70;100397.88;5012581;28;20058;-88
2022/08/03 08:22:58;;;;;;;5.05;2.65;;;;;;;28.37;44.05;100338.69;4994701;28;20054;-87
2022/08/03 08:25:23;;;;;;;3.72;2.20;;;;;;;28.46;44.28;100351.59;5012031;28;20053;-86
2022/08/03 08:27:49;;;;;;;3.33;2.22;;;;;;;28.68;45.00;100380.84;4994595;28;20121;-86
2022/08/03 08:30:19;;;;;;;2.40;2.00;;;;;;;28.72;41.48;100370.97;5012439;28;20038;-87
2022/08/03 08:32:45;;;;;;;5.47;2.63;;;;;;;28.79;42.27;100368.94;5012438;28;20484;-87
2022/08/03 08:35:11;;;;;;;5.18;2.20;;;;;;;29.09;40.41;100388.06;4994510;28;20073;-87
2022/08/03 08:37:37;;;;;;;3.72;2.08;;;;;;;29.03;43.07;100361.75;5010721;28;20084;-87
2022/08/03 08:40:04;;;;;;;4.78;2.38;;;;;;;29.16;41.57;100378.03;5010775;28;20053;-86
2022/08/03 08:42:30;;;;;;;25.92;5.97;;;;;;;29.08;44.78;100366.88;4994349;28;20042;-86
2022/08/03 08:44:56;;;;;;;5.22;2.55;;;;;;;28.99;41.09;100333.59;5011946;28;20041;-87
2022/08/03 08:47:28;;;;;;;4.57;2.20;;;;;;;29.36;40.26;100366.59;4994330;28;20480;-87
2022/08/03 08:49:56;;;;;;;3.95;2.10;;;;;;;29.35;39.76;100346.25;5011649;28;20049;-88
2022/08/03 08:52:25;;;;;;;7.03;2.50;;;;;;;29.66;41.67;100384.81;5011747;28;20030;-86
2022/08/03 08:54:57;;;;;;;5.22;2.38;;;;;;;29.51;41.24;100365.94;5010513;28;20416;-86
2022/08/03 08:57:28;;;;;;;5.30;2.35;;;;;;;29.73;40.00;100383.59;4994254;28;20096;-85
2022/08/03 08:59:55;;;;;;;8.70;2.60;;;;;;;29.81;39.05;100372.63;4994108;28;20045;-85
2022/08/03 09:02:28;;;;;;;5.28;2.30;;;;;;;29.78;40.95;100378.91;5011227;28;20050;-82
2022/08/03 09:04:54;;;;;;;4.72;2.50;;;;;;;29.63;41.18;100321.09;5011639;28;20041;-82
2022/08/03 09:07:19;;;;;;;7.75;2.80;;;;;;;30.12;42.49;100374.78;5011593;28;20112;-81
2022/08/03 09:09:45;;;;;;;5.93;1.90;;;;;;;29.94;41.24;100338.34;5011525;28;20422;-84
2022/08/03 09:12:10;;;;;;;4.47;2.20;;;;;;;30.01;41.05;100347.78;5011382;28;20492;-86
2022/08/03 09:14:36;;;;;;;8.07;2.67;;;;;;;30.22;38.06;100356.56;5010249;28;20638;-86
2022/08/03 09:17:03;;;;;;;20.33;5.63;;;;;;;30.31;39.41;100350.81;5011653;28;20396;-86
2022/08/03 09:19:30;;;;;;;12.20;2.80;;;;;;;30.48;40.36;100357.09;5011342;28;20038;-84
2022/08/03 09:22:15;;;;;;;4.97;2.13;;;;;;;30.49;39.53;100366.88;5010003;28;20065;-84
2022/08/03 09:25:08;;;;;;;5.57;2.20;;;;;;;30.62;37.28;100345.84;5011611;28;20053;-86
2022/08/03 09:27:44;;;;;;;3.13;2.05;;;;;;;30.65;37.98;100319.03;5011377;28;20054;-86
2022/08/03 09:30:19;;;;;;;8.27;2.20;;;;;;;30.69;39.89;100336.59;4993320;28;20113;-84
2022/08/03 09:32:45;;;;;;;3.10;2.10;;;;;;;30.95;37.36;100350.41;5011165;28;20038;-82
2022/08/03 09:35:12;;;;;;;4.20;1.95;;;;;;;30.72;37.19;100282.28;5011140;28;20041;-81
2022/08/03 09:37:38;;;;;;;4.43;2.00;;;;;;;30.80;37.73;100286.28;5011312;28;20468;-82
2022/08/03 09:40:05;;;;;;;2.58;2.00;;;;;;;31.24;37.57;100335.66;4993469;28;20056;-82
2022/08/03 09:42:33;;;;;;;3.10;1.90;;;;;;;30.94;36.86;100292.72;4993311;28;20042;-84
2022/08/03 09:44:58;;;;;;;3.42;2.15;;;;;;;30.76;36.99;100313.19;5011413;28;20490;-83
2022/08/03 09:47:37;;;;;;;2.75;1.90;;;;;;;30.28;36.74;100320.78;5010825;28;20065;-82
2022/08/03 09:50:04;;;;;;;;;;;;;;;30.62;37.42;100332.53;4993843;28;20037;-82
2022/08/03 09:52:35;;;;;;;3.35;1.95;;;;;;;30.72;36.59;100328.44;5010765;28;20003;-83
2022/08/03 09:55:09;;;;;;;4.43;2.15;;;;;;;30.87;37.12;100299.28;5011098;28;20485;-82
2022/08/03 09:57:35;;;;;;;8.05;2.92;;;;;;;31.07;36.11;100309.84;4993371;28;20030;-82
2022/08/03 10:00:11;;;;;;;4.47;2.38;;;;;;;31.09;35.68;100307.97;4993323;28;20042;-84
2022/08/03 10:02:37;;;;;;;9.23;3.30;;;;;;;31.29;35.65;100295.38;5010800;28;20041;-82
2022/08/03 10:05:04;;;;;;;5.30;2.13;;;;;;;31.42;33.98;100304.47;4993336;28;20072;-84
2022/08/03 10:07:40;;;;;;;2.83;1.85;;;;;;;31.29;36.96;100269.59;5010991;28;20121;-83
2022/08/03 10:10:06;;;;;;;8.95;2.60;;;;;;;31.46;36.02;100286.50;5010942;28;20042;-84
2022/08/03 10:12:32;;;;;;;4.03;2.03;;;;;;;31.82;34.87;100309.50;5010906;28;20057;-84
2022/08/03 10:14:58;;;;;;;5.05;2.10;;;;;;;32.01;37.18;100309.34;5013644;28;20057;-83
2022/08/03 10:17:23;;;;;;;5.40;1.92;;;;;;;32.07;34.31;100297.47;4992390;28;20063;-83
2022/08/03 10:19:49;;;;;;;3.25;1.80;;;;;;;31.92;35.66;100299.19;4991287;28;20082;-83
2022/08/03 10:22:21;;;;;;;2.80;2.00;;;;;;;31.45;37.21;100237.63;4991628;28;20058;-83
2022/08/03 10:24:53;;;;;;;5.65;1.83;;;;;;;32.16;34.46;100304.09;4975849;28;20551;-83
2022/08/03 10:27:19;;;;;;;4.30;2.05;;;;;;;32.35;32.89;100270.09;4992124;28;20038;-83
2022/08/03 10:29:53;;;;;;;5.38;2.20;;;;;;;32.79;32.60;100279.16;4992165;28;20488;-83
2022/08/03 10:32:32;;;;;;;2.65;1.90;;;;;;;32.91;35.68;100293.59;4991960;28;20031;-85
2022/08/03 10:35:11;;;;;;;7.30;2.05;;;;;;;33.01;34.69;100293.91;4990533;28;20523;-84
2022/08/03 10:37:43;;;;;;;4.30;1.90;;;;;;;32.56;32.50;100286.69;4982436;28;20038;-81
2022/08/03 10:40:14;;;;;;;3.70;1.90;;;;;;;32.31;33.90;100279.19;4981581;28;20039;-81
2022/08/03 10:42:43;;;;;;;4.43;2.10;;;;;;;32.20;35.09;100281.63;4980107;28;20081;-87
2022/08/03 10:45:25;;;;;;;15.17;3.47;;;;;;;32.08;33.56;100277.81;4981576;28;20034;-84
2022/08/03 10:47:52;;;;;;;3.15;1.80;;;;;;;32.42;32.71;100260.75;4996021;28;20088;-84
2022/08/03 10:50:19;;;;;;;2.38;1.85;;;;;;;32.95;31.61;100268.41;5013542;28;20034;-81
2022/08/03 10:52:55;;;;;;;5.50;1.95;;;;;;;32.80;35.03;100200.69;5010545;28;20037;-89
2022/08/03 10:58:36;;;;;;;2.72;2.00;;;;;;;32.83;33.75;100264.63;5014100;28;20554;-80
2022/08/03 11:01:25;;;;;;;4.43;2.00;;;;;;;32.50;32.31;100252.31;5013194;28;20045;-78
2022/08/03 11:03:51;;;;;;;3.20;1.85;;;;;;;32.49;34.21;100271.06;4942139;29;20442;-74
2022/08/03 11:06:19;;;;;;;6.60;2.03;;;;;;;32.46;33.65;100273.94;4930364;29;20050;-79
2022/08/03 11:08:46;;;;;;;3.72;2.00;;;;;;;32.27;34.08;100248.28;4932074;29;20122;-76
2022/08/03 11:11:17;;;;;;;2.58;1.90;;;;;;;32.14;33.62;100263.25;4931936;29;20047;-76
2022/08/03 11:14:06;;;;;;;4.65;2.10;;;;;;;32.05;32.70;100228.13;4932415;29;20091;-77
2022/08/03 11:16:49;;;;;;;;;;;;;;;32.07;35.07;100266.25;4932701;29;20048;-74
2022/08/03 11:19:45;;;;;;;2.90;1.90;;;;;;;31.76;34.76;100246.63;4932247;29;19925;-76
2022/08/03 11:22:11;;;;;;;2.75;1.80;;;;;;;31.90;33.62;100261.91;4932074;29;20071;-79
2022/08/03 11:24:38;;;;;;;3.80;2.00;;;;;;;31.85;33.42;100260.41;4935697;29;20568;-84
2022/08/03 11:27:26;;;;;;;2.20;1.90;;;;;;;31.88;32.96;100260.25;4931057;29;20032;-83
2022/08/03 11:30:06;;;;;;;2.42;1.80;;;;;;;31.71;33.41;100263.84;4931978;29;20609;-80
2022/08/03 11:32:47;;;;;;;3.30;2.05;;;;;;;31.56;34.15;100261.03;4934897;29;20043;-87
2022/08/03 11:35:13;;;;;;;2.70;1.63;;;;;;;31.45;34.77;100248.28;4932124;29;20043;-83
2022/08/03 11:37:57;;;;;;;7.22;2.15;;;;;;;31.61;35.37;100258.13;4931650;29;20518;-87
2022/08/03 11:40:50;;;;;;;5.72;1.90;;;;;;;31.55;34.15;100245.97;4958565;28;20522;-81